< < Back
Terminal Aerodrome Forecast


Current Version              Previous Versions:   1  2  3  4  5  6  7  8  9  

Terminal Aerodrome Forecast

322
FTUS44 KOHX 301100
TAFBNA
TAF
KBNA 301122Z 3012/0112 00000KT P6SM SKC
     FM301500 36006KT P6SM FEW050
     FM010000 VRB03KT P6SM SKC
     FM010800 00000KT 4SM BR SKC=



Latest METAR

137
SAUS70 KWBC 010800 RRK
MTRBNA
METAR KBNA 010753Z 18003KT 10SM CLR 15/13 A2993 RMK AO2 SLP129
T01500133


USA.gov is the U.S. government's official web portal to all federal, state and local government web resources and services.